createdAt,value
2019-04-24T22:00:06.458Z,11.3
2019-04-24T22:01:13.395Z,11
2019-04-24T22:02:20.569Z,10.9
2019-04-24T22:03:27.640Z,10.9
2019-04-24T22:04:35.042Z,10.8
2019-04-24T22:05:41.989Z,10.8
2019-04-24T22:06:49.197Z,10.8
2019-04-24T22:07:57.846Z,10.7
2019-04-24T22:09:05.075Z,10.7
2019-04-24T22:10:12.301Z,10.6
2019-04-24T22:11:19.510Z,10.6
2019-04-24T22:12:28.788Z,10.5
2019-04-24T22:13:35.774Z,10.5
2019-04-24T22:14:42.711Z,10.4
2019-04-24T22:15:51.700Z,10.3
2019-04-24T22:16:58.922Z,10.3
2019-04-24T22:18:06.143Z,10.3
2019-04-24T22:19:13.574Z,10.3
2019-04-24T22:20:22.244Z,10.2
2019-04-24T22:21:30.001Z,10.2
2019-04-24T22:22:37.716Z,10.1
2019-04-24T22:23:44.935Z,10.1
2019-04-24T22:24:52.965Z,10.1
2019-04-24T22:26:00.170Z,10
2019-04-24T22:27:07.387Z,10
2019-04-24T22:28:14.597Z,9.9
2019-04-24T22:29:22.473Z,9.9
2019-04-24T22:30:30.312Z,9.9
2019-04-24T22:31:37.679Z,9.8
2019-04-24T22:32:44.888Z,9.8
2019-04-24T22:33:52.115Z,9.7
2019-04-24T22:34:59.335Z,9.7
2019-04-24T22:36:06.540Z,9.7
2019-04-24T22:37:13.753Z,9.6
2019-04-24T22:38:21.743Z,9.6
2019-04-24T22:39:29.714Z,9.6
2019-04-24T22:40:39.343Z,9.6
2019-04-24T22:41:46.281Z,9.5
2019-04-24T22:42:53.513Z,9.5
2019-04-24T22:44:02.406Z,9.4
2019-04-24T22:45:23.994Z,9.4
2019-04-24T22:46:34.410Z,9.3
2019-04-24T22:47:44.410Z,9.3
2019-04-24T22:48:53.385Z,9.3
2019-04-24T22:50:02.216Z,9.2
2019-04-24T22:51:09.513Z,9.2
2019-04-24T22:52:18.455Z,9.1
2019-04-24T22:53:26.256Z,9.1
2019-04-24T22:54:40.086Z,9.1
2019-04-24T22:55:50.121Z,9.1
2019-04-24T22:56:59.607Z,9.1
2019-04-24T22:58:06.545Z,9
2019-04-24T22:59:13.477Z,9
2019-04-24T23:00:21.748Z,9
2019-04-24T23:01:28.984Z,9
2019-04-24T23:02:39.460Z,8.9
2019-04-24T23:03:48.408Z,8.9
2019-04-24T23:04:55.623Z,8.8
2019-04-24T23:06:02.846Z,8.8
2019-04-24T23:07:10.069Z,8.8
2019-04-24T23:08:19.066Z,8.7
2019-04-24T23:09:26.270Z,8.7
2019-04-24T23:10:40.704Z,8.7
2019-04-24T23:11:52.974Z,8.7
2019-04-24T23:13:00.187Z,8.7
2019-04-24T23:14:08.847Z,8.7
2019-04-24T23:15:15.783Z,8.7
2019-04-24T23:16:22.996Z,8.6
2019-04-24T23:17:29.925Z,8.6
2019-04-24T23:18:37.976Z,8.6
2019-04-24T23:19:45.761Z,8.5
2019-04-24T23:20:52.977Z,8.4
2019-04-24T23:22:00.191Z,8.4
2019-04-24T23:23:08.562Z,8.4
2019-04-24T23:24:15.776Z,8.3
2019-04-24T23:25:22.721Z,8.3
2019-04-24T23:26:29.937Z,8.2
2019-04-24T23:27:37.141Z,8.1
2019-04-24T23:28:45.402Z,8.1
2019-04-24T23:29:52.611Z,8.1
2019-04-24T23:31:01.420Z,8.1
2019-04-24T23:32:08.440Z,8.1
2019-04-24T23:33:15.652Z,8.1
2019-04-24T23:34:22.588Z,8
2019-04-24T23:35:29.530Z,8
2019-04-24T23:36:36.468Z,7.9
2019-04-24T23:37:46.090Z,7.9
2019-04-24T23:38:52.865Z,7.9
2019-04-24T23:40:00.074Z,7.9
2019-04-24T23:41:07.009Z,7.9
2019-04-24T23:42:17.682Z,8
2019-04-24T23:43:24.902Z,8
2019-04-24T23:44:32.694Z,7.9
2019-04-24T23:45:41.483Z,7.9
2019-04-24T23:46:49.302Z,7.9
2019-04-24T23:47:57.825Z,7.9
2019-04-24T23:49:05.037Z,7.9
2019-04-24T23:50:12.514Z,7.9
2019-04-24T23:51:19.727Z,7.8
2019-04-24T23:52:26.671Z,7.8
2019-04-24T23:53:33.811Z,7.7
2019-04-24T23:55:04.021Z,7.7
2019-04-24T23:56:14.280Z,7.6
2019-04-24T23:57:22.107Z,7.6
2019-04-24T23:58:29.319Z,7.6
2019-04-24T23:59:37.894Z,7.6
